sensor_id;sensor_type;location;lat;lon;timestamp;pressure;altitude;pressure_sealevel;temperature;humidity
13767;BME280;47980;48.794;9.176;2023-09-07T00:01:37;98556.44;;;18.42;85.01
13767;BME280;47980;48.794;9.176;2023-09-07T00:04:08;98551.13;;;18.45;84.65
13767;BME280;47980;48.794;9.176;2023-09-07T00:06:42;98551.78;;;18.39;86.15
13767;BME280;47980;48.794;9.176;2023-09-07T00:09:14;98547.53;;;18.34;86.05
13767;BME280;47980;48.794;9.176;2023-09-07T00:11:46;98556.59;;;18.26;86.79
13767;BME280;47980;48.794;9.176;2023-09-07T00:14:17;98550.41;;;18.22;87.01
13767;BME280;47980;48.794;9.176;2023-09-07T00:16:49;98551.63;;;18.24;87.78
13767;BME280;47980;48.794;9.176;2023-09-07T00:19:20;98556.16;;;18.20;87.34
13767;BME280;47980;48.794;9.176;2023-09-07T00:21:53;98553.69;;;18.08;88.90
13767;BME280;47980;48.794;9.176;2023-09-07T00:24:25;98548.22;;;18.01;88.86
13767;BME280;47980;48.794;9.176;2023-09-07T00:26:56;98563.22;;;18.02;88.79
13767;BME280;47980;48.794;9.176;2023-09-07T00:29:28;98561.19;;;17.95;89.65
13767;BME280;47980;48.794;9.176;2023-09-07T00:31:59;98556.97;;;17.94;88.73
13767;BME280;47980;48.794;9.176;2023-09-07T00:34:31;98553.41;;;17.87;89.13
13767;BME280;47980;48.794;9.176;2023-09-07T00:37:04;98551.94;;;17.93;88.71
13767;BME280;47980;48.794;9.176;2023-09-07T00:39:35;98553.75;;;17.85;89.21
13767;BME280;47980;48.794;9.176;2023-09-07T00:42:07;98556.91;;;17.91;88.39
13767;BME280;47980;48.794;9.176;2023-09-07T00:44:38;98558.28;;;17.81;87.95
13767;BME280;47980;48.794;9.176;2023-09-07T00:47:10;98553.34;;;17.83;89.06
13767;BME280;47980;48.794;9.176;2023-09-07T00:49:41;98553.69;;;17.82;89.30
13767;BME280;47980;48.794;9.176;2023-09-07T00:52:14;98559.38;;;17.76;88.50
13767;BME280;47980;48.794;9.176;2023-09-07T00:54:46;98565.38;;;17.70;89.19
13767;BME280;47980;48.794;9.176;2023-09-07T00:57:18;98554.66;;;17.70;90.16
13767;BME280;47980;48.794;9.176;2023-09-07T00:59:49;98557.00;;;17.75;89.23
13767;BME280;47980;48.794;9.176;2023-09-07T01:02:21;98561.09;;;17.65;90.65
13767;BME280;47980;48.794;9.176;2023-09-07T01:04:52;98569.09;;;17.62;90.43
13767;BME280;47980;48.794;9.176;2023-09-07T01:07:31;98564.97;;;17.68;90.58
13767;BME280;47980;48.794;9.176;2023-09-07T01:10:04;98571.41;;;17.63;90.55
13767;BME280;47980;48.794;9.176;2023-09-07T01:12:35;98556.03;;;17.60;90.83
13767;BME280;47980;48.794;9.176;2023-09-07T01:15:07;98561.69;;;17.55;90.28
13767;BME280;47980;48.794;9.176;2023-09-07T01:17:39;98557.94;;;17.60;90.89
13767;BME280;47980;48.794;9.176;2023-09-07T01:20:12;98555.78;;;17.46;92.20
13767;BME280;47980;48.794;9.176;2023-09-07T01:22:48;98563.84;;;17.46;92.58
13767;BME280;47980;48.794;9.176;2023-09-07T01:25:20;98564.56;;;17.43;93.33
13767;BME280;47980;48.794;9.176;2023-09-07T01:27:52;98563.72;;;17.39;93.68
13767;BME280;47980;48.794;9.176;2023-09-07T01:30:26;98565.94;;;17.33;93.69
13767;BME280;47980;48.794;9.176;2023-09-07T01:32:58;98559.69;;;17.25;95.19
13767;BME280;47980;48.794;9.176;2023-09-07T01:35:31;98555.88;;;17.26;95.58
13767;BME280;47980;48.794;9.176;2023-09-07T01:38:06;98552.47;;;17.29;95.48
13767;BME280;47980;48.794;9.176;2023-09-07T01:40:37;98548.53;;;17.23;96.15
13767;BME280;47980;48.794;9.176;2023-09-07T01:43:09;98553.63;;;17.28;95.98
13767;BME280;47980;48.794;9.176;2023-09-07T01:45:43;98550.50;;;17.26;96.42
13767;BME280;47980;48.794;9.176;2023-09-07T01:48:15;98549.19;;;17.17;97.51
13767;BME280;47980;48.794;9.176;2023-09-07T01:50:46;98555.31;;;17.17;96.81
13767;BME280;47980;48.794;9.176;2023-09-07T01:53:19;98552.88;;;17.08;97.76
13767;BME280;47980;48.794;9.176;2023-09-07T01:55:53;98554.06;;;17.11;98.32
13767;BME280;47980;48.794;9.176;2023-09-07T01:58:25;98557.41;;;17.04;98.81
13767;BME280;47980;48.794;9.176;2023-09-07T02:00:57;98563.97;;;17.07;98.03
13767;BME280;47980;48.794;9.176;2023-09-07T02:03:29;98561.28;;;17.07;98.25
13767;BME280;47980;48.794;9.176;2023-09-07T02:06:00;98556.63;;;17.04;98.45
13767;BME280;47980;48.794;9.176;2023-09-07T02:08:33;98559.13;;;16.93;99.80
13767;BME280;47980;48.794;9.176;2023-09-07T02:11:05;98559.88;;;16.94;99.34
13767;BME280;47980;48.794;9.176;2023-09-07T02:13:36;98561.78;;;16.93;99.07
13767;BME280;47980;48.794;9.176;2023-09-07T02:16:08;98564.88;;;16.95;100.00
13767;BME280;47980;48.794;9.176;2023-09-07T02:18:40;98560.19;;;16.89;99.84
13767;BME280;47980;48.794;9.176;2023-09-07T02:21:13;98568.09;;;16.81;100.00
13767;BME280;47980;48.794;9.176;2023-09-07T02:23:46;98566.94;;;16.82;100.00
13767;BME280;47980;48.794;9.176;2023-09-07T02:26:18;98569.41;;;16.91;100.00
13767;BME280;47980;48.794;9.176;2023-09-07T02:28:49;98568.63;;;16.91;99.40
13767;BME280;47980;48.794;9.176;2023-09-07T02:31:20;98568.44;;;16.80;99.97
13767;BME280;47980;48.794;9.176;2023-09-07T02:33:52;98564.53;;;16.77;100.00
13767;BME280;47980;48.794;9.176;2023-09-07T02:36:23;98557.78;;;16.64;100.00
13767;BME280;47980;48.794;9.176;2023-09-07T02:38:56;98553.09;;;16.61;100.00
13767;BME280;47980;48.794;9.176;2023-09-07T02:41:28;98558.91;;;16.63;100.00
13767;BME280;47980;48.794;9.176;2023-09-07T02:43:59;98551.28;;;16.65;100.00
13767;BME280;47980;48.794;9.176;2023-09-07T02:46:31;98557.19;;;16.55;100.00
13767;BME280;47980;48.794;9.176;2023-09-07T02:49:02;98558.03;;;16.59;100.00
13767;BME280;47980;48.794;9.176;2023-09-07T02:51:34;98555.72;;;16.57;100.00
13767;BME280;47980;48.794;9.176;2023-09-07T02:54:06;98554.88;;;16.53;100.00
13767;BME280;47980;48.794;9.176;2023-09-07T02:56:38;98553.03;;;16.57;100.00
13767;BME280;47980;48.794;9.176;2023-09-07T02:59:09;98547.53;;;16.50;100.00
13767;BME280;47980;48.794;9.176;2023-09-07T03:01:41;98554.38;;;16.48;100.00
13767;BME280;47980;48.794;9.176;2023-09-07T03:04:12;98550.50;;;16.45;100.00
13767;BME280;47980;48.794;9.176;2023-09-07T03:06:44;98553.44;;;16.40;100.00
13767;BME280;47980;48.794;9.176;2023-09-07T03:09:17;98551.47;;;16.37;100.00
13767;BME280;47980;48.794;9.176;2023-09-07T03:11:48;98558.66;;;16.33;100.00
13767;BME280;47980;48.794;9.176;2023-09-07T03:14:21;98555.00;;;16.41;100.00
13767;BME280;47980;48.794;9.176;2023-09-07T03:16:54;98551.00;;;16.51;100.00
13767;BME280;47980;48.794;9.176;2023-09-07T03:19:26;98554.28;;;16.44;100.00
13767;BME280;47980;48.794;9.176;2023-09-07T03:21:57;98544.28;;;16.41;100.00
13767;BME280;47980;48.794;9.176;2023-09-07T03:24:31;98545.22;;;16.49;100.00
13767;BME280;47980;48.794;9.176;2023-09-07T03:27:02;98544.78;;;16.47;100.00
13767;BME280;47980;48.794;9.176;2023-09-07T03:29:35;98544.94;;;16.54;100.00
13767;BME280;47980;48.794;9.176;2023-09-07T03:32:06;98543.09;;;16.39;99.97
13767;BME280;47980;48.794;9.176;2023-09-07T03:34:38;98539.84;;;16.29;100.00
13767;BME280;47980;48.794;9.176;2023-09-07T03:37:10;98547.94;;;16.33;100.00
13767;BME280;47980;48.794;9.176;2023-09-07T03:39:43;98538.66;;;16.27;100.00
13767;BME280;47980;48.794;9.176;2023-09-07T03:42:14;98538.22;;;16.25;100.00
13767;BME280;47980;48.794;9.176;2023-09-07T03:44:46;98533.31;;;16.27;100.00
13767;BME280;47980;48.794;9.176;2023-09-07T03:47:17;98535.47;;;16.21;100.00
13767;BME280;47980;48.794;9.176;2023-09-07T03:49:49;98539.06;;;16.09;100.00
13767;BME280;47980;48.794;9.176;2023-09-07T03:52:21;98545.09;;;16.06;100.00
13767;BME280;47980;48.794;9.176;2023-09-07T03:54:56;98545.31;;;15.98;100.00
13767;BME280;47980;48.794;9.176;2023-09-07T03:57:28;98537.97;;;15.95;100.00
13767;BME280;47980;48.794;9.176;2023-09-07T04:00:00;98537.28;;;15.98;100.00
13767;BME280;47980;48.794;9.176;2023-09-07T04:02:33;98538.13;;;16.02;100.00
13767;BME280;47980;48.794;9.176;2023-09-07T04:05:05;98535.78;;;16.00;100.00
13767;BME280;47980;48.794;9.176;2023-09-07T04:07:37;98535.22;;;15.91;100.00
13767;BME280;47980;48.794;9.176;2023-09-07T04:10:10;98531.78;;;15.91;100.00
13767;BME280;47980;48.794;9.176;2023-09-07T04:12:41;98536.47;;;15.97;100.00
13767;BME280;47980;48.794;9.176;2023-09-07T04:15:13;98535.13;;;15.87;100.00
13767;BME280;47980;48.794;9.176;2023-09-07T04:17:44;98535.13;;;15.87;100.00
13767;BME280;47980;48.794;9.176;2023-09-07T04:20:16;98537.53;;;15.93;100.00
13767;BME280;47980;48.794;9.176;2023-09-07T04:22:47;98534.97;;;15.80;100.00
13767;BME280;47980;48.794;9.176;2023-09-07T04:25:21;98541.44;;;15.79;100.00
13767;BME280;47980;48.794;9.176;2023-09-07T04:27:52;98539.88;;;15.78;100.00
13767;BME280;47980;48.794;9.176;2023-09-07T04:30:24;98535.59;;;15.74;100.00
13767;BME280;47980;48.794;9.176;2023-09-07T04:32:55;98541.53;;;15.67;100.00
13767;BME280;47980;48.794;9.176;2023-09-07T04:35:28;98541.22;;;15.69;100.00
13767;BME280;47980;48.794;9.176;2023-09-07T04:38:00;98540.09;;;15.70;100.00
13767;BME280;47980;48.794;9.176;2023-09-07T04:40:33;98545.00;;;15.68;100.00
13767;BME280;47980;48.794;9.176;2023-09-07T04:43:04;98534.47;;;15.75;100.00
13767;BME280;47980;48.794;9.176;2023-09-07T04:45:36;98538.22;;;15.89;100.00
13767;BME280;47980;48.794;9.176;2023-09-07T04:48:07;98536.75;;;15.92;100.00
13767;BME280;47980;48.794;9.176;2023-09-07T04:50:39;98542.19;;;15.96;100.00
13767;BME280;47980;48.794;9.176;2023-09-07T04:53:10;98542.56;;;15.94;100.00
13767;BME280;47980;48.794;9.176;2023-09-07T04:55:44;98545.22;;;15.94;100.00
13767;BME280;47980;48.794;9.176;2023-09-07T04:58:15;98548.84;;;16.02;100.00
13767;BME280;47980;48.794;9.176;2023-09-07T05:00:47;98545.03;;;16.03;100.00
13767;BME280;47980;48.794;9.176;2023-09-07T05:03:18;98549.38;;;16.27;100.00
13767;BME280;47980;48.794;9.176;2023-09-07T05:05:53;98550.91;;;16.28;100.00
13767;BME280;47980;48.794;9.176;2023-09-07T05:08:24;98543.50;;;16.21;100.00
13767;BME280;47980;48.794;9.176;2023-09-07T05:10:58;98556.59;;;16.07;100.00
13767;BME280;47980;48.794;9.176;2023-09-07T05:13:30;98555.53;;;16.11;100.00
13767;BME280;47980;48.794;9.176;2023-09-07T05:16:02;98560.16;;;15.95;100.00
13767;BME280;47980;48.794;9.176;2023-09-07T05:18:35;98558.59;;;15.62;100.00
13767;BME280;47980;48.794;9.176;2023-09-07T05:21:13;98561.84;;;16.03;100.00
13767;BME280;47980;48.794;9.176;2023-09-07T05:23:44;98562.13;;;15.98;100.00
13767;BME280;47980;48.794;9.176;2023-09-07T05:26:21;98563.47;;;16.24;100.00
13767;BME280;47980;48.794;9.176;2023-09-07T05:28:54;98570.09;;;16.49;100.00
13767;BME280;47980;48.794;9.176;2023-09-07T05:31:25;98579.06;;;16.57;97.81
13767;BME280;47980;48.794;9.176;2023-09-07T05:33:57;98586.25;;;16.72;97.76
13767;BME280;47980;48.794;9.176;2023-09-07T05:36:29;98580.41;;;16.86;95.86
13767;BME280;47980;48.794;9.176;2023-09-07T05:39:01;98583.56;;;16.72;95.68
13767;BME280;47980;48.794;9.176;2023-09-07T05:41:35;98583.94;;;16.90;95.92
13767;BME280;47980;48.794;9.176;2023-09-07T05:44:07;98587.00;;;17.12;94.30
13767;BME280;47980;48.794;9.176;2023-09-07T05:46:38;98584.72;;;17.33;92.38
13767;BME280;47980;48.794;9.176;2023-09-07T05:49:10;98583.25;;;17.16;92.96
13767;BME280;47980;48.794;9.176;2023-09-07T05:51:41;98581.75;;;16.96;94.46
13767;BME280;47980;48.794;9.176;2023-09-07T05:54:13;98582.16;;;16.98;92.67
13767;BME280;47980;48.794;9.176;2023-09-07T05:56:46;98583.13;;;17.09;91.76
13767;BME280;47980;48.794;9.176;2023-09-07T05:59:17;98582.03;;;16.91;94.42
13767;BME280;47980;48.794;9.176;2023-09-07T06:01:48;98586.06;;;17.00;92.96
13767;BME280;47980;48.794;9.176;2023-09-07T06:04:20;98578.72;;;17.20;91.58
13767;BME280;47980;48.794;9.176;2023-09-07T06:06:51;98579.34;;;17.33;91.15
13767;BME280;47980;48.794;9.176;2023-09-07T06:09:23;98586.19;;;17.53;90.66
13767;BME280;47980;48.794;9.176;2023-09-07T06:11:56;98583.16;;;17.55;89.47
13767;BME280;47980;48.794;9.176;2023-09-07T06:14:27;98582.63;;;17.69;89.50
13767;BME280;47980;48.794;9.176;2023-09-07T06:16:59;98579.13;;;17.65;89.49
13767;BME280;47980;48.794;9.176;2023-09-07T06:19:31;98584.16;;;17.93;88.97
13767;BME280;47980;48.794;9.176;2023-09-07T06:22:03;98582.03;;;17.79;89.22
13767;BME280;47980;48.794;9.176;2023-09-07T06:24:35;98591.28;;;18.08;87.29
13767;BME280;47980;48.794;9.176;2023-09-07T06:27:08;98584.72;;;18.32;85.15
13767;BME280;47980;48.794;9.176;2023-09-07T06:29:39;98583.94;;;18.32;84.80
13767;BME280;47980;48.794;9.176;2023-09-07T06:32:11;98582.75;;;18.59;85.22
13767;BME280;47980;48.794;9.176;2023-09-07T06:34:42;98583.44;;;18.83;83.58
13767;BME280;47980;48.794;9.176;2023-09-07T06:37:14;98576.97;;;18.57;83.63
13767;BME280;47980;48.794;9.176;2023-09-07T06:39:45;98581.03;;;19.08;80.61
13767;BME280;47980;48.794;9.176;2023-09-07T06:42:18;98580.28;;;18.77;81.72
13767;BME280;47980;48.794;9.176;2023-09-07T06:44:50;98570.72;;;18.80;82.54
13767;BME280;47980;48.794;9.176;2023-09-07T06:47:22;98580.66;;;18.75;82.07
13767;BME280;47980;48.794;9.176;2023-09-07T06:49:54;98580.44;;;18.91;83.18
13767;BME280;47980;48.794;9.176;2023-09-07T06:52:25;98577.47;;;19.41;79.20
13767;BME280;47980;48.794;9.176;2023-09-07T06:54:56;98582.53;;;19.49;78.12
13767;BME280;47980;48.794;9.176;2023-09-07T06:57:29;98588.25;;;19.89;75.74
13767;BME280;47980;48.794;9.176;2023-09-07T07:00:01;98585.13;;;19.39;79.19
13767;BME280;47980;48.794;9.176;2023-09-07T07:02:35;98592.91;;;19.47;79.10
13767;BME280;47980;48.794;9.176;2023-09-07T07:05:07;98595.66;;;19.51;78.82
13767;BME280;47980;48.794;9.176;2023-09-07T07:07:38;98589.78;;;19.83;78.13
13767;BME280;47980;48.794;9.176;2023-09-07T07:10:10;98597.94;;;19.93;74.77
13767;BME280;47980;48.794;9.176;2023-09-07T07:12:43;98594.50;;;20.00;75.05
13767;BME280;47980;48.794;9.176;2023-09-07T07:15:14;98596.00;;;19.90;76.01
13767;BME280;47980;48.794;9.176;2023-09-07T07:17:46;98603.81;;;20.13;75.34
13767;BME280;47980;48.794;9.176;2023-09-07T07:20:17;98602.91;;;20.50;73.80
13767;BME280;47980;48.794;9.176;2023-09-07T07:22:49;98601.63;;;20.37;73.90
13767;BME280;47980;48.794;9.176;2023-09-07T07:25:20;98602.16;;;20.53;73.12
13767;BME280;47980;48.794;9.176;2023-09-07T07:27:53;98602.56;;;20.66;71.73
13767;BME280;47980;48.794;9.176;2023-09-07T07:30:26;98597.50;;;20.50;72.27
13767;BME280;47980;48.794;9.176;2023-09-07T07:32:59;98598.81;;;20.85;72.40
13767;BME280;47980;48.794;9.176;2023-09-07T07:35:31;98602.56;;;20.55;73.21
13767;BME280;47980;48.794;9.176;2023-09-07T07:38:03;98598.59;;;20.38;73.28
13767;BME280;47980;48.794;9.176;2023-09-07T07:40:35;98596.16;;;21.03;70.29
13767;BME280;47980;48.794;9.176;2023-09-07T07:43:08;98591.94;;;21.20;70.31
13767;BME280;47980;48.794;9.176;2023-09-07T07:45:40;98592.78;;;21.49;68.93
13767;BME280;47980;48.794;9.176;2023-09-07T07:48:11;98595.88;;;21.61;69.71
13767;BME280;47980;48.794;9.176;2023-09-07T07:50:43;98596.22;;;21.24;70.12
13767;BME280;47980;48.794;9.176;2023-09-07T07:53:14;98593.53;;;21.56;69.28
13767;BME280;47980;48.794;9.176;2023-09-07T07:55:46;98599.34;;;21.91;67.04
13767;BME280;47980;48.794;9.176;2023-09-07T07:58:20;98590.81;;;22.24;65.39
13767;BME280;47980;48.794;9.176;2023-09-07T08:00:51;98600.09;;;22.16;65.52
13767;BME280;47980;48.794;9.176;2023-09-07T08:03:23;98590.75;;;22.42;64.67
13767;BME280;47980;48.794;9.176;2023-09-07T08:05:55;98586.91;;;22.40;65.12
13767;BME280;47980;48.794;9.176;2023-09-07T08:08:27;98583.81;;;22.38;65.03
13767;BME280;47980;48.794;9.176;2023-09-07T08:10:58;98594.13;;;22.71;63.12
13767;BME280;47980;48.794;9.176;2023-09-07T08:13:43;98578.06;;;23.13;61.09
13767;BME280;47980;48.794;9.176;2023-09-07T08:16:16;98574.91;;;23.25;61.97
13767;BME280;47980;48.794;9.176;2023-09-07T08:18:50;98571.59;;;22.99;61.45
13767;BME280;47980;48.794;9.176;2023-09-07T08:21:21;98576.47;;;23.22;60.13
13767;BME280;47980;48.794;9.176;2023-09-07T08:23:53;98568.25;;;23.37;61.79
13767;BME280;47980;48.794;9.176;2023-09-07T08:26:24;98576.44;;;23.26;60.57
13767;BME280;47980;48.794;9.176;2023-09-07T08:28:57;98573.41;;;23.20;61.28
13767;BME280;47980;48.794;9.176;2023-09-07T08:31:29;98569.84;;;23.83;60.09
13767;BME280;47980;48.794;9.176;2023-09-07T08:34:00;98561.72;;;23.83;59.88
13767;BME280;47980;48.794;9.176;2023-09-07T08:36:33;98567.75;;;23.97;58.28
13767;BME280;47980;48.794;9.176;2023-09-07T08:39:05;98580.22;;;23.88;59.85
13767;BME280;47980;48.794;9.176;2023-09-07T08:41:40;98575.22;;;23.86;58.36
13767;BME280;47980;48.794;9.176;2023-09-07T08:44:16;98588.63;;;24.00;58.78
13767;BME280;47980;48.794;9.176;2023-09-07T08:46:50;98581.47;;;24.17;57.36
13767;BME280;47980;48.794;9.176;2023-09-07T08:49:23;98585.75;;;24.18;58.78
13767;BME280;47980;48.794;9.176;2023-09-07T08:51:58;98580.00;;;23.71;59.74
13767;BME280;47980;48.794;9.176;2023-09-07T08:54:30;98581.84;;;24.19;57.90
13767;BME280;47980;48.794;9.176;2023-09-07T08:57:03;98573.69;;;24.23;57.87
13767;BME280;47980;48.794;9.176;2023-09-07T08:59:36;98585.88;;;24.08;58.63
13767;BME280;47980;48.794;9.176;2023-09-07T09:02:09;98580.22;;;24.25;59.94
13767;BME280;47980;48.794;9.176;2023-09-07T09:04:41;98584.63;;;24.50;58.21
13767;BME280;47980;48.794;9.176;2023-09-07T09:07:12;98582.28;;;24.52;56.95
13767;BME280;47980;48.794;9.176;2023-09-07T09:09:44;98588.19;;;24.43;57.50
13767;BME280;47980;48.794;9.176;2023-09-07T09:12:17;98575.59;;;24.26;57.79
13767;BME280;47980;48.794;9.176;2023-09-07T09:14:50;98578.69;;;24.62;57.80
13767;BME280;47980;48.794;9.176;2023-09-07T09:17:24;98579.03;;;24.64;57.18
13767;BME280;47980;48.794;9.176;2023-09-07T09:19:56;98575.13;;;24.96;57.18
13767;BME280;47980;48.794;9.176;2023-09-07T09:22:28;98580.81;;;25.05;55.65
13767;BME280;47980;48.794;9.176;2023-09-07T09:25:02;98572.63;;;24.82;56.98
13767;BME280;47980;48.794;9.176;2023-09-07T09:27:35;98569.13;;;25.08;56.87
13767;BME280;47980;48.794;9.176;2023-09-07T09:30:09;98562.53;;;25.36;56.16
13767;BME280;47980;48.794;9.176;2023-09-07T09:32:41;98569.09;;;25.39;56.27
13767;BME280;47980;48.794;9.176;2023-09-07T09:35:16;98554.97;;;25.24;55.09
13767;BME280;47980;48.794;9.176;2023-09-07T09:37:48;98560.81;;;24.65;57.33
13767;BME280;47980;48.794;9.176;2023-09-07T09:40:22;98561.72;;;24.85;59.31
13767;BME280;47980;48.794;9.176;2023-09-07T09:42:54;98554.44;;;25.06;57.10
13767;BME280;47980;48.794;9.176;2023-09-07T09:45:28;98561.28;;;25.41;56.79
13767;BME280;47980;48.794;9.176;2023-09-07T09:47:59;98566.09;;;25.57;57.02
13767;BME280;47980;48.794;9.176;2023-09-07T09:50:32;98557.31;;;25.49;56.74
13767;BME280;47980;48.794;9.176;2023-09-07T09:53:05;98550.44;;;25.64;55.83
13767;BME280;47980;48.794;9.176;2023-09-07T09:55:38;98550.63;;;25.54;55.64
13767;BME280;47980;48.794;9.176;2023-09-07T09:58:09;98553.50;;;25.43;55.34
13767;BME280;47980;48.794;9.176;2023-09-07T10:00:43;98552.25;;;25.95;55.76
13767;BME280;47980;48.794;9.176;2023-09-07T10:03:18;98549.41;;;26.02;54.78
13767;BME280;47980;48.794;9.176;2023-09-07T10:05:53;98548.38;;;25.72;55.71
13767;BME280;47980;48.794;9.176;2023-09-07T10:08:29;98552.75;;;26.09;54.92
13767;BME280;47980;48.794;9.176;2023-09-07T10:11:07;98556.09;;;25.74;54.83
13767;BME280;47980;48.794;9.176;2023-09-07T10:13:39;98546.44;;;25.49;55.55
13767;BME280;47980;48.794;9.176;2023-09-07T10:16:12;98551.97;;;25.65;56.58
13767;BME280;47980;48.794;9.176;2023-09-07T10:18:43;98556.81;;;26.01;56.34
13767;BME280;47980;48.794;9.176;2023-09-07T10:21:15;98553.16;;;25.88;55.75
13767;BME280;47980;48.794;9.176;2023-09-07T10:23:51;98547.41;;;26.26;54.74
13767;BME280;47980;48.794;9.176;2023-09-07T10:26:23;98548.00;;;26.13;54.97
13767;BME280;47980;48.794;9.176;2023-09-07T10:29:03;98544.72;;;26.02;54.43
13767;BME280;47980;48.794;9.176;2023-09-07T10:31:37;98545.66;;;26.15;56.17
13767;BME280;47980;48.794;9.176;2023-09-07T10:34:09;98538.31;;;25.92;54.64
13767;BME280;47980;48.794;9.176;2023-09-07T10:36:41;98532.69;;;25.56;56.05
13767;BME280;47980;48.794;9.176;2023-09-07T10:39:13;98542.50;;;25.97;55.18
13767;BME280;47980;48.794;9.176;2023-09-07T10:41:45;98529.28;;;26.19;55.60
13767;BME280;47980;48.794;9.176;2023-09-07T10:44:25;98529.88;;;26.27;54.74
13767;BME280;47980;48.794;9.176;2023-09-07T10:46:58;98518.44;;;26.55;54.31
13767;BME280;47980;48.794;9.176;2023-09-07T10:49:29;98519.47;;;26.61;54.67
13767;BME280;47980;48.794;9.176;2023-09-07T10:52:02;98517.31;;;26.53;54.42
13767;BME280;47980;48.794;9.176;2023-09-07T10:54:37;98522.03;;;26.69;53.58
13767;BME280;47980;48.794;9.176;2023-09-07T10:57:09;98513.09;;;26.68;55.56
13767;BME280;47980;48.794;9.176;2023-09-07T10:59:44;98510.38;;;26.68;54.29
13767;BME280;47980;48.794;9.176;2023-09-07T11:02:17;98513.38;;;26.74;54.09
13767;BME280;47980;48.794;9.176;2023-09-07T11:04:48;98507.19;;;26.89;54.23
13767;BME280;47980;48.794;9.176;2023-09-07T11:07:20;98507.53;;;26.92;53.45
13767;BME280;47980;48.794;9.176;2023-09-07T11:09:52;98505.22;;;26.74;54.09
13767;BME280;47980;48.794;9.176;2023-09-07T11:12:24;98501.66;;;27.09;53.74
13767;BME280;47980;48.794;9.176;2023-09-07T11:14:56;98504.97;;;27.01;53.17
13767;BME280;47980;48.794;9.176;2023-09-07T11:17:29;98508.69;;;26.74;53.63
13767;BME280;47980;48.794;9.176;2023-09-07T11:20:03;98506.91;;;26.68;53.79
13767;BME280;47980;48.794;9.176;2023-09-07T11:22:36;98503.00;;;26.85;54.88
13767;BME280;47980;48.794;9.176;2023-09-07T11:25:10;98492.28;;;26.78;54.29
13767;BME280;47980;48.794;9.176;2023-09-07T11:27:41;98494.13;;;27.17;53.14
13767;BME280;47980;48.794;9.176;2023-09-07T11:30:13;98492.69;;;27.13;53.62
13767;BME280;47980;48.794;9.176;2023-09-07T11:32:46;98496.59;;;27.28;54.06
13767;BME280;47980;48.794;9.176;2023-09-07T11:35:17;98496.13;;;27.46;52.08
13767;BME280;47980;48.794;9.176;2023-09-07T11:37:52;98486.41;;;27.45;52.23
13767;BME280;47980;48.794;9.176;2023-09-07T11:40:23;98488.75;;;27.59;52.52
13767;BME280;47980;48.794;9.176;2023-09-07T11:42:55;98483.53;;;27.35;52.50
13767;BME280;47980;48.794;9.176;2023-09-07T11:45:26;98483.50;;;27.52;51.96
13767;BME280;47980;48.794;9.176;2023-09-07T11:47:59;98486.50;;;27.41;52.70
13767;BME280;47980;48.794;9.176;2023-09-07T11:50:31;98475.94;;;26.94;52.78
13767;BME280;47980;48.794;9.176;2023-09-07T11:53:03;98478.22;;;27.45;53.10
13767;BME280;47980;48.794;9.176;2023-09-07T11:55:34;98472.75;;;27.61;52.34
13767;BME280;47980;48.794;9.176;2023-09-07T11:58:06;98475.47;;;27.61;52.03
13767;BME280;47980;48.794;9.176;2023-09-07T12:00:37;98473.00;;;27.96;51.10
13767;BME280;47980;48.794;9.176;2023-09-07T12:03:12;98460.53;;;27.82;51.25
13767;BME280;47980;48.794;9.176;2023-09-07T12:05:44;98461.66;;;27.97;51.74
13767;BME280;47980;48.794;9.176;2023-09-07T12:08:15;98465.22;;;28.23;50.43
13767;BME280;47980;48.794;9.176;2023-09-07T12:10:46;98465.22;;;28.23;50.98
13767;BME280;47980;48.794;9.176;2023-09-07T12:13:18;98467.38;;;28.28;50.46
13767;BME280;47980;48.794;9.176;2023-09-07T12:15:49;98463.34;;;28.20;50.53
13767;BME280;47980;48.794;9.176;2023-09-07T12:18:23;98460.66;;;27.91;51.47
13767;BME280;47980;48.794;9.176;2023-09-07T12:20:54;98460.16;;;28.09;51.45
13767;BME280;47980;48.794;9.176;2023-09-07T12:23:26;98450.25;;;28.28;51.24
13767;BME280;47980;48.794;9.176;2023-09-07T12:25:57;98460.03;;;28.54;49.42
13767;BME280;47980;48.794;9.176;2023-09-07T12:28:29;98451.72;;;28.45;49.40
13767;BME280;47980;48.794;9.176;2023-09-07T12:31:01;98451.25;;;28.34;50.03
13767;BME280;47980;48.794;9.176;2023-09-07T12:33:34;98457.94;;;28.59;49.87
13767;BME280;47980;48.794;9.176;2023-09-07T12:36:05;98455.00;;;28.66;48.24
13767;BME280;47980;48.794;9.176;2023-09-07T12:38:39;98445.38;;;28.74;48.06
13767;BME280;47980;48.794;9.176;2023-09-07T12:41:11;98439.78;;;28.90;47.42
13767;BME280;47980;48.794;9.176;2023-09-07T12:43:42;98445.78;;;28.85;46.94
13767;BME280;47980;48.794;9.176;2023-09-07T12:46:14;98446.78;;;28.78;47.90
13767;BME280;47980;48.794;9.176;2023-09-07T12:48:46;98442.94;;;28.89;46.64
13767;BME280;47980;48.794;9.176;2023-09-07T12:51:18;98442.38;;;28.94;47.14
13767;BME280;47980;48.794;9.176;2023-09-07T12:53:49;98430.81;;;29.02;47.41
13767;BME280;47980;48.794;9.176;2023-09-07T12:56:21;98440.53;;;29.16;47.39
13767;BME280;47980;48.794;9.176;2023-09-07T12:58:53;98439.44;;;29.14;46.58
13767;BME280;47980;48.794;9.176;2023-09-07T13:01:24;98440.88;;;29.06;46.10
13767;BME280;47980;48.794;9.176;2023-09-07T13:03:57;98432.47;;;29.00;46.48
13767;BME280;47980;48.794;9.176;2023-09-07T13:06:29;98437.31;;;29.31;47.07
13767;BME280;47980;48.794;9.176;2023-09-07T13:09:01;98432.84;;;29.24;45.75
13767;BME280;47980;48.794;9.176;2023-09-07T13:11:34;98435.19;;;29.13;47.79
13767;BME280;47980;48.794;9.176;2023-09-07T13:14:06;98433.84;;;29.17;48.06
13767;BME280;47980;48.794;9.176;2023-09-07T13:16:38;98427.28;;;29.15;47.33
13767;BME280;47980;48.794;9.176;2023-09-07T13:19:11;98422.28;;;29.00;48.36
13767;BME280;47980;48.794;9.176;2023-09-07T13:21:43;98424.78;;;29.20;48.63
13767;BME280;47980;48.794;9.176;2023-09-07T13:24:14;98420.84;;;29.43;45.98